sensor_id;sensor_type;location;lat;lon;timestamp;pressure;altitude;pressure_sealevel;temperature;humidity
19553;BME280;9420;50.876;7.012;2023-02-08T00:00:53;103487.31;;;6.38;65.85
19553;BME280;9420;50.876;7.012;2023-02-08T00:03:21;103482.22;;;6.43;65.63
19553;BME280;9420;50.876;7.012;2023-02-08T00:05:49;103490.88;;;6.13;67.09
19553;BME280;9420;50.876;7.012;2023-02-08T00:08:16;103480.81;;;5.75;68.78
19553;BME280;9420;50.876;7.012;2023-02-08T00:10:43;103479.69;;;5.92;68.78
19553;BME280;9420;50.876;7.012;2023-02-08T00:13:10;103471.81;;;5.67;69.21
19553;BME280;9420;50.876;7.012;2023-02-08T00:15:40;103470.03;;;5.66;69.92
19553;BME280;9420;50.876;7.012;2023-02-08T00:18:08;103469.75;;;5.57;69.78
19553;BME280;9420;50.876;7.012;2023-02-08T00:20:37;103466.28;;;5.58;70.67
19553;BME280;9420;50.876;7.012;2023-02-08T00:23:05;103471.72;;;5.64;70.87
19553;BME280;9420;50.876;7.012;2023-02-08T00:25:32;103468.38;;;5.68;70.59
19553;BME280;9420;50.876;7.012;2023-02-08T00:27:59;103471.41;;;5.55;70.80
19553;BME280;9420;50.876;7.012;2023-02-08T00:30:29;103465.84;;;5.46;70.90
19553;BME280;9420;50.876;7.012;2023-02-08T00:32:57;103467.94;;;5.56;70.52
19553;BME280;9420;50.876;7.012;2023-02-08T00:35:26;103460.84;;;5.52;70.78
19553;BME280;9420;50.876;7.012;2023-02-08T00:37:54;103465.34;;;5.56;70.34
19553;BME280;9420;50.876;7.012;2023-02-08T00:40:22;103454.75;;;5.53;70.64
19553;BME280;9420;50.876;7.012;2023-02-08T00:42:49;103451.50;;;5.58;70.08
19553;BME280;9420;50.876;7.012;2023-02-08T00:45:16;103448.84;;;5.57;70.56
19553;BME280;9420;50.876;7.012;2023-02-08T00:47:44;103454.56;;;5.47;71.66
19553;BME280;9420;50.876;7.012;2023-02-08T00:50:11;103454.47;;;5.44;72.99
19553;BME280;9420;50.876;7.012;2023-02-08T00:52:38;103455.38;;;5.44;72.12
19553;BME280;9420;50.876;7.012;2023-02-08T00:55:08;103456.59;;;5.55;72.03
19553;BME280;9420;50.876;7.012;2023-02-08T00:57:35;103454.75;;;5.53;72.55
19553;BME280;9420;50.876;7.012;2023-02-08T01:00:05;103456.44;;;5.51;72.35
19553;BME280;9420;50.876;7.012;2023-02-08T01:02:34;103452.66;;;5.43;72.83
19553;BME280;9420;50.876;7.012;2023-02-08T01:05:01;103455.41;;;5.46;72.53
19553;BME280;9420;50.876;7.012;2023-02-08T01:07:28;103459.41;;;5.36;72.96
19553;BME280;9420;50.876;7.012;2023-02-08T01:09:55;103448.09;;;5.36;73.89
19553;BME280;9420;50.876;7.012;2023-02-08T01:12:24;103446.28;;;5.35;75.45
19553;BME280;9420;50.876;7.012;2023-02-08T01:14:52;103456.75;;;5.35;75.37
19553;BME280;9420;50.876;7.012;2023-02-08T01:17:19;103448.38;;;5.45;75.06
19553;BME280;9420;50.876;7.012;2023-02-08T01:19:46;103448.94;;;5.36;75.08
19553;BME280;9420;50.876;7.012;2023-02-08T01:22:13;103453.97;;;5.30;75.74
19553;BME280;9420;50.876;7.012;2023-02-08T01:24:40;103446.09;;;5.29;76.58
19553;BME280;9420;50.876;7.012;2023-02-08T01:27:07;103444.16;;;5.23;77.43
19553;BME280;9420;50.876;7.012;2023-02-08T01:29:36;103435.84;;;5.35;77.16
19553;BME280;9420;50.876;7.012;2023-02-08T01:32:03;103433.97;;;5.31;77.08
19553;BME280;9420;50.876;7.012;2023-02-08T01:34:30;103445.53;;;5.37;77.14
19553;BME280;9420;50.876;7.012;2023-02-08T01:36:58;103448.56;;;5.26;77.88
19553;BME280;9420;50.876;7.012;2023-02-08T01:39:25;103450.19;;;5.22;77.77
19553;BME280;9420;50.876;7.012;2023-02-08T01:41:52;103442.41;;;5.24;78.06
19553;BME280;9420;50.876;7.012;2023-02-08T01:48:05;103437.44;;;5.30;77.43
19553;BME280;9420;50.876;7.012;2023-02-08T01:50:44;103438.97;;;5.25;77.88
19553;BME280;9420;50.876;7.012;2023-02-08T01:53:14;103430.88;;;5.17;78.77
19553;BME280;9420;50.876;7.012;2023-02-08T01:55:47;103425.19;;;5.29;77.87
19553;BME280;9420;50.876;7.012;2023-02-08T01:58:18;103424.84;;;5.20;78.26
19553;BME280;9420;50.876;7.012;2023-02-08T02:00:46;103425.19;;;5.29;78.47
19553;BME280;9420;50.876;7.012;2023-02-08T02:03:17;103424.06;;;5.46;77.86
19553;BME280;9420;50.876;7.012;2023-02-08T02:05:49;103427.03;;;5.56;77.01
19553;BME280;9420;50.876;7.012;2023-02-08T02:08:18;103427.41;;;5.42;77.61
19553;BME280;9420;50.876;7.012;2023-02-08T02:10:47;103425.50;;;5.38;77.74
19553;BME280;9420;50.876;7.012;2023-02-08T02:13:20;103420.38;;;5.41;78.18
19553;BME280;9420;50.876;7.012;2023-02-08T02:15:49;103425.44;;;5.36;78.50
19553;BME280;9420;50.876;7.012;2023-02-08T02:18:23;103414.63;;;5.51;77.82
19553;BME280;9420;50.876;7.012;2023-02-08T02:21:20;103423.75;;;5.63;77.31
19553;BME280;9420;50.876;7.012;2023-02-08T02:24:16;103416.00;;;5.65;76.67
19553;BME280;9420;50.876;7.012;2023-02-08T02:30:44;103426.88;;;5.52;77.02
19553;BME280;9420;50.876;7.012;2023-02-08T02:33:52;103423.84;;;5.40;77.68
19553;BME280;9420;50.876;7.012;2023-02-08T02:36:36;103415.56;;;5.53;76.64
19553;BME280;9420;50.876;7.012;2023-02-08T02:39:17;103421.44;;;5.46;77.12
19553;BME280;9420;50.876;7.012;2023-02-08T02:41:56;103424.66;;;5.39;76.89
19553;BME280;9420;50.876;7.012;2023-02-08T02:44:54;103422.97;;;5.16;78.25
19553;BME280;9420;50.876;7.012;2023-02-08T02:47:31;103418.06;;;5.25;78.78
19553;BME280;9420;50.876;7.012;2023-02-08T02:50:11;103418.78;;;4.96;79.99
19553;BME280;9420;50.876;7.012;2023-02-08T02:52:50;103415.81;;;5.10;80.32
19553;BME280;9420;50.876;7.012;2023-02-08T02:55:27;103414.09;;;5.11;80.01
19553;BME280;9420;50.876;7.012;2023-02-08T02:57:57;103405.09;;;5.03;80.83
19553;BME280;9420;50.876;7.012;2023-02-08T03:00:27;103418.09;;;5.01;80.91
19553;BME280;9420;50.876;7.012;2023-02-08T03:02:56;103413.00;;;5.04;81.55
19553;BME280;9420;50.876;7.012;2023-02-08T03:05:26;103420.66;;;5.00;82.08
19553;BME280;9420;50.876;7.012;2023-02-08T03:08:14;103414.09;;;5.11;80.86
19553;BME280;9420;50.876;7.012;2023-02-08T03:11:13;103411.53;;;4.89;81.54
19553;BME280;9420;50.876;7.012;2023-02-08T03:14:03;103418.41;;;4.87;81.05
19553;BME280;9420;50.876;7.012;2023-02-08T03:19:49;103415.84;;;4.88;82.09
19553;BME280;9420;50.876;7.012;2023-02-08T03:22:27;103426.53;;;4.70;83.04
19553;BME280;9420;50.876;7.012;2023-02-08T03:25:02;103419.88;;;4.78;83.86
19553;BME280;9420;50.876;7.012;2023-02-08T03:27:37;103420.94;;;4.83;84.17
19553;BME280;9420;50.876;7.012;2023-02-08T03:30:12;103423.25;;;5.00;84.06
19553;BME280;9420;50.876;7.012;2023-02-08T03:32:47;103422.19;;;4.95;83.48
19553;BME280;9420;50.876;7.012;2023-02-08T03:35:21;103428.25;;;4.94;82.79
19553;BME280;9420;50.876;7.012;2023-02-08T03:37:57;103427.03;;;5.08;81.85
19553;BME280;9420;50.876;7.012;2023-02-08T03:40:31;103431.88;;;4.97;81.99
19553;BME280;9420;50.876;7.012;2023-02-08T03:43:03;103435.97;;;4.91;82.06
19553;BME280;9420;50.876;7.012;2023-02-08T03:45:39;103444.22;;;4.77;83.23
19553;BME280;9420;50.876;7.012;2023-02-08T03:48:10;103435.66;;;4.81;83.23
19553;BME280;9420;50.876;7.012;2023-02-08T03:50:40;103427.75;;;4.80;83.42
19553;BME280;9420;50.876;7.012;2023-02-08T03:53:13;103425.03;;;4.77;84.65
19553;BME280;9420;50.876;7.012;2023-02-08T03:55:46;103424.75;;;4.93;84.42
19553;BME280;9420;50.876;7.012;2023-02-08T03:58:22;103426.00;;;5.03;84.44
19553;BME280;9420;50.876;7.012;2023-02-08T04:00:55;103427.53;;;4.98;84.67
19553;BME280;9420;50.876;7.012;2023-02-08T04:03:27;103417.09;;;5.21;84.02
19553;BME280;9420;50.876;7.012;2023-02-08T04:05:56;103427.41;;;5.42;82.48
19553;BME280;9420;50.876;7.012;2023-02-08T04:08:26;103421.97;;;5.36;81.62
19553;BME280;9420;50.876;7.012;2023-02-08T04:10:53;103421.16;;;5.38;82.36
19553;BME280;9420;50.876;7.012;2023-02-08T04:13:20;103430.53;;;5.32;81.58
19553;BME280;9420;50.876;7.012;2023-02-08T04:15:47;103419.16;;;5.55;80.35
19553;BME280;9420;50.876;7.012;2023-02-08T04:18:15;103417.97;;;5.47;80.17
19553;BME280;9420;50.876;7.012;2023-02-08T04:20:42;103423.06;;;5.42;79.40
19553;BME280;9420;50.876;7.012;2023-02-08T04:23:09;103413.78;;;5.27;80.35
19553;BME280;9420;50.876;7.012;2023-02-08T04:25:37;103413.63;;;5.22;80.74
19553;BME280;9420;50.876;7.012;2023-02-08T04:28:04;103412.28;;;5.33;80.97
19553;BME280;9420;50.876;7.012;2023-02-08T04:30:31;103410.78;;;5.40;79.84
19553;BME280;9420;50.876;7.012;2023-02-08T04:32:58;103406.28;;;5.36;79.52
19553;BME280;9420;50.876;7.012;2023-02-08T04:35:25;103411.31;;;5.30;79.71
19553;BME280;9420;50.876;7.012;2023-02-08T04:37:52;103411.75;;;5.18;79.90
19553;BME280;9420;50.876;7.012;2023-02-08T04:40:19;103408.53;;;6.02;75.34
19553;BME280;9420;50.876;7.012;2023-02-08T04:42:48;103409.94;;;5.41;74.30
19553;BME280;9420;50.876;7.012;2023-02-08T04:45:17;103413.75;;;5.02;79.00
19553;BME280;9420;50.876;7.012;2023-02-08T04:47:44;103421.22;;;5.15;79.30
19553;BME280;9420;50.876;7.012;2023-02-08T04:50:11;103425.59;;;5.41;78.37
19553;BME280;9420;50.876;7.012;2023-02-08T04:52:38;103426.84;;;5.27;78.17
19553;BME280;9420;50.876;7.012;2023-02-08T04:55:07;103426.97;;;5.30;77.98
19553;BME280;9420;50.876;7.012;2023-02-08T04:57:34;103418.13;;;5.26;77.25
19553;BME280;9420;50.876;7.012;2023-02-08T05:00:04;103418.41;;;5.34;76.92
19553;BME280;9420;50.876;7.012;2023-02-08T05:02:31;103415.16;;;5.41;77.00
19553;BME280;9420;50.876;7.012;2023-02-08T05:04:58;103420.84;;;5.29;76.29
19553;BME280;9420;50.876;7.012;2023-02-08T05:07:25;103417.03;;;5.45;76.64
19553;BME280;9420;50.876;7.012;2023-02-08T05:09:52;103413.31;;;5.38;76.43
19553;BME280;9420;50.876;7.012;2023-02-08T05:12:19;103413.59;;;5.46;75.62
19553;BME280;9420;50.876;7.012;2023-02-08T05:14:46;103415.56;;;5.53;75.17
19553;BME280;9420;50.876;7.012;2023-02-08T05:17:17;103410.13;;;5.47;74.64
19553;BME280;9420;50.876;7.012;2023-02-08T05:19:45;103423.72;;;5.37;75.09
19553;BME280;9420;50.876;7.012;2023-02-08T05:22:11;103414.84;;;5.32;74.10
19553;BME280;9420;50.876;7.012;2023-02-08T05:24:39;103424.13;;;5.24;74.80
19553;BME280;9420;50.876;7.012;2023-02-08T05:27:06;103417.97;;;5.22;75.39
19553;BME280;9420;50.876;7.012;2023-02-08T05:29:33;103424.13;;;5.24;74.88
19553;BME280;9420;50.876;7.012;2023-02-08T05:32:00;103420.69;;;5.25;75.19
19553;BME280;9420;50.876;7.012;2023-02-08T05:34:28;103426.09;;;5.06;75.34
19553;BME280;9420;50.876;7.012;2023-02-08T05:36:55;103425.03;;;5.01;75.72
19553;BME280;9420;50.876;7.012;2023-02-08T05:39:22;103429.44;;;5.02;75.05
19553;BME280;9420;50.876;7.012;2023-02-08T05:41:49;103422.09;;;4.92;76.73
19553;BME280;9420;50.876;7.012;2023-02-08T05:44:16;103424.66;;;4.90;76.44
19553;BME280;9420;50.876;7.012;2023-02-08T05:46:43;103419.59;;;4.95;76.57
19553;BME280;9420;50.876;7.012;2023-02-08T05:49:10;103425.75;;;4.97;76.36
19553;BME280;9420;50.876;7.012;2023-02-08T05:51:39;103425.88;;;5.00;76.09
19553;BME280;9420;50.876;7.012;2023-02-08T05:54:06;103422.31;;;4.98;75.58
19553;BME280;9420;50.876;7.012;2023-02-08T05:56:33;103422.09;;;5.15;74.13
19553;BME280;9420;50.876;7.012;2023-02-08T05:59:00;103427.53;;;4.98;74.80
19553;BME280;9420;50.876;7.012;2023-02-08T06:01:28;103418.63;;;5.16;72.78
19553;BME280;9420;50.876;7.012;2023-02-08T06:03:57;103418.13;;;5.26;73.67
19553;BME280;9420;50.876;7.012;2023-02-08T06:06:27;103423.59;;;5.09;74.83
19553;BME280;9420;50.876;7.012;2023-02-08T06:08:56;103424.75;;;5.17;73.79
19553;BME280;9420;50.876;7.012;2023-02-08T06:11:23;103426.53;;;5.18;72.89
19553;BME280;9420;50.876;7.012;2023-02-08T06:13:50;103422.97;;;5.16;72.94
19553;BME280;9420;50.876;7.012;2023-02-08T06:16:17;103422.88;;;5.13;72.70
19553;BME280;9420;50.876;7.012;2023-02-08T06:18:44;103423.44;;;5.04;72.79
19553;BME280;9420;50.876;7.012;2023-02-08T06:21:11;103423.38;;;5.03;73.43
19553;BME280;9420;50.876;7.012;2023-02-08T06:23:38;103421.75;;;4.82;74.04
19553;BME280;9420;50.876;7.012;2023-02-08T06:26:07;103426.22;;;4.85;74.83
19553;BME280;9420;50.876;7.012;2023-02-08T06:28:34;103424.06;;;4.51;75.99
19553;BME280;9420;50.876;7.012;2023-02-08T06:31:01;103427.16;;;4.41;76.96
19553;BME280;9420;50.876;7.012;2023-02-08T06:33:28;103424.88;;;5.45;73.99
19553;BME280;9420;50.876;7.012;2023-02-08T06:35:55;103436.03;;;4.46;76.85
19553;BME280;9420;50.876;7.012;2023-02-08T06:38:22;103424.06;;;4.51;77.42
19553;BME280;9420;50.876;7.012;2023-02-08T06:40:50;103436.38;;;4.55;77.69
19553;BME280;9420;50.876;7.012;2023-02-08T06:43:19;103433.78;;;4.77;77.06
19553;BME280;9420;50.876;7.012;2023-02-08T06:45:46;103434.44;;;4.96;75.26
19553;BME280;9420;50.876;7.012;2023-02-08T06:48:14;103435.63;;;5.05;75.35
19553;BME280;9420;50.876;7.012;2023-02-08T06:50:41;103430.88;;;4.94;74.09
19553;BME280;9420;50.876;7.012;2023-02-08T06:53:08;103434.22;;;4.90;75.62
19553;BME280;9420;50.876;7.012;2023-02-08T06:55:35;103433.25;;;4.64;75.90
19553;BME280;9420;50.876;7.012;2023-02-08T06:58:02;103436.03;;;4.68;76.79
19553;BME280;9420;50.876;7.012;2023-02-08T07:00:30;103434.19;;;4.66;77.16
19553;BME280;9420;50.876;7.012;2023-02-08T07:02:58;103419.66;;;4.72;76.62
19553;BME280;9420;50.876;7.012;2023-02-08T07:05:25;103432.25;;;4.60;76.15
19553;BME280;9420;50.876;7.012;2023-02-08T07:07:52;103431.38;;;4.61;76.69
19553;BME280;9420;50.876;7.012;2023-02-08T07:10:19;103433.19;;;4.62;76.33
19553;BME280;9420;50.876;7.012;2023-02-08T07:12:46;103422.84;;;4.65;75.94
19553;BME280;9420;50.876;7.012;2023-02-08T07:15:13;103416.66;;;4.86;74.78
19553;BME280;9420;50.876;7.012;2023-02-08T07:17:42;103407.41;;;4.71;74.92
19553;BME280;9420;50.876;7.012;2023-02-08T07:20:10;103402.06;;;5.16;73.68
19553;BME280;9420;50.876;7.012;2023-02-08T07:22:38;103411.53;;;4.89;73.92
19553;BME280;9420;50.876;7.012;2023-02-08T07:25:07;103402.94;;;5.15;73.40
19553;BME280;9420;50.876;7.012;2023-02-08T07:27:35;103408.41;;;5.22;72.49
19553;BME280;9420;50.876;7.012;2023-02-08T07:30:03;103412.13;;;5.54;71.02
19553;BME280;9420;50.876;7.012;2023-02-08T07:32:30;103400.81;;;5.80;70.52
19553;BME280;9420;50.876;7.012;2023-02-08T07:34:59;103404.81;;;5.69;70.04
19553;BME280;9420;50.876;7.012;2023-02-08T07:37:26;103408.09;;;5.89;69.27
19553;BME280;9420;50.876;7.012;2023-02-08T07:39:53;103405.34;;;5.84;69.57
19553;BME280;9420;50.876;7.012;2023-02-08T07:42:21;103405.34;;;5.59;70.51
19553;BME280;9420;50.876;7.012;2023-02-08T07:44:48;103407.97;;;5.84;70.50
19553;BME280;9420;50.876;7.012;2023-02-08T07:47:15;103402.94;;;5.90;69.94
19553;BME280;9420;50.876;7.012;2023-02-08T07:49:42;103402.56;;;6.06;69.18
19553;BME280;9420;50.876;7.012;2023-02-08T07:52:11;103385.91;;;7.23;64.83
19553;BME280;9420;50.876;7.012;2023-02-08T07:54:38;103389.88;;;7.40;63.78
19553;BME280;9420;50.876;7.012;2023-02-08T07:57:05;103390.88;;;7.45;62.64
19553;BME280;9420;50.876;7.012;2023-02-08T07:59:32;103392.63;;;7.12;63.35
19553;BME280;9420;50.876;7.012;2023-02-08T08:01:59;103391.84;;;7.49;62.07
19553;BME280;9420;50.876;7.012;2023-02-08T08:04:26;103383.47;;;7.63;61.77
19553;BME280;9420;50.876;7.012;2023-02-08T08:06:54;103401.78;;;7.60;61.56
19553;BME280;9420;50.876;7.012;2023-02-08T08:09:22;103395.50;;;7.55;61.72
19553;BME280;9420;50.876;7.012;2023-02-08T08:11:50;103409.69;;;6.12;66.54
19553;BME280;9420;50.876;7.012;2023-02-08T08:14:17;103389.13;;;7.46;62.50
19553;BME280;9420;50.876;7.012;2023-02-08T08:16:44;103398.75;;;6.23;65.51
19553;BME280;9420;50.876;7.012;2023-02-08T08:19:11;103394.25;;;6.48;66.19
19553;BME280;9420;50.876;7.012;2023-02-08T08:21:38;103386.47;;;7.44;63.45
19553;BME280;9420;50.876;7.012;2023-02-08T08:24:05;103383.72;;;7.72;61.59
19553;BME280;9420;50.876;7.012;2023-02-08T08:26:34;103385.25;;;7.64;61.95
19553;BME280;9420;50.876;7.012;2023-02-08T08:29:01;103374.28;;;7.80;61.83
19553;BME280;9420;50.876;7.012;2023-02-08T08:31:28;103380.75;;;7.94;61.87
19553;BME280;9420;50.876;7.012;2023-02-08T08:33:56;103373.59;;;7.19;62.39
19553;BME280;9420;50.876;7.012;2023-02-08T08:36:23;103379.69;;;7.18;63.25
19553;BME280;9420;50.876;7.012;2023-02-08T08:38:50;103382.81;;;7.05;64.16
19553;BME280;9420;50.876;7.012;2023-02-08T08:41:18;103376.91;;;7.46;61.29
19553;BME280;9420;50.876;7.012;2023-02-08T08:43:48;103381.72;;;6.97;62.02
19553;BME280;9420;50.876;7.012;2023-02-08T08:46:15;103379.44;;;7.77;59.74
19553;BME280;9420;50.876;7.012;2023-02-08T08:48:42;103374.31;;;8.58;58.17
19553;BME280;9420;50.876;7.012;2023-02-08T08:51:11;103381.31;;;7.47;59.34
19553;BME280;9420;50.876;7.012;2023-02-08T08:53:39;103380.63;;;7.20;61.34
19553;BME280;9420;50.876;7.012;2023-02-08T08:56:06;103373.06;;;7.66;61.90
19553;BME280;9420;50.876;7.012;2023-02-08T08:58:33;103372.75;;;8.67;57.01
19553;BME280;9420;50.876;7.012;2023-02-08T09:01:02;103372.66;;;8.23;58.21
19553;BME280;9420;50.876;7.012;2023-02-08T09:03:29;103377.81;;;8.20;57.03
19553;BME280;9420;50.876;7.012;2023-02-08T09:05:56;103379.91;;;7.95;58.66
19553;BME280;9420;50.876;7.012;2023-02-08T09:08:23;103378.66;;;7.81;60.14
19553;BME280;9420;50.876;7.012;2023-02-08T09:10:50;103373.38;;;8.17;59.86
19553;BME280;9420;50.876;7.012;2023-02-08T09:13:17;103377.59;;;8.11;58.92
19553;BME280;9420;50.876;7.012;2023-02-08T09:15:46;103371.28;;;8.01;59.09
19553;BME280;9420;50.876;7.012;2023-02-08T09:18:16;103368.03;;;7.75;56.95
19553;BME280;9420;50.876;7.012;2023-02-08T09:20:43;103372.81;;;8.29;55.25
19553;BME280;9420;50.876;7.012;2023-02-08T09:23:10;103367.16;;;8.49;56.99
19553;BME280;9420;50.876;7.012;2023-02-08T09:25:37;103374.97;;;8.11;57.52
19553;BME280;9420;50.876;7.012;2023-02-08T09:28:04;103375.19;;;8.20;56.36
19553;BME280;9420;50.876;7.012;2023-02-08T09:30:32;103362.34;;;8.72;53.99
19553;BME280;9420;50.876;7.012;2023-02-08T09:32:59;103364.53;;;8.51;54.01
19553;BME280;9420;50.876;7.012;2023-02-08T09:35:28;103362.44;;;8.76;55.13
19553;BME280;9420;50.876;7.012;2023-02-08T09:37:56;103363.22;;;8.71;54.35
19553;BME280;9420;50.876;7.012;2023-02-08T09:40:37;103360.84;;;8.83;54.54
19553;BME280;9420;50.876;7.012;2023-02-08T09:43:12;103363.91;;;8.24;52.97
19553;BME280;9420;50.876;7.012;2023-02-08T09:45:50;103373.53;;;8.62;53.08
19553;BME280;9420;50.876;7.012;2023-02-08T09:48:25;103362.25;;;8.67;53.49
19553;BME280;9420;50.876;7.012;2023-02-08T09:51:03;103368.81;;;8.88;53.04
19553;BME280;9420;50.876;7.012;2023-02-08T09:53:36;103358.44;;;8.95;52.74
19553;BME280;9420;50.876;7.012;2023-02-08T09:56:11;103356.38;;;9.25;53.09
19553;BME280;9420;50.876;7.012;2023-02-08T09:58:44;103356.31;;;9.22;52.65
19553;BME280;9420;50.876;7.012;2023-02-08T10:01:18;103349.81;;;9.02;51.61
19553;BME280;9420;50.876;7.012;2023-02-08T10:03:51;103349.31;;;9.23;50.79
19553;BME280;9420;50.876;7.012;2023-02-08T10:06:21;103351.34;;;8.91;50.92
19553;BME280;9420;50.876;7.012;2023-02-08T10:08:50;103346.25;;;9.48;49.74
19553;BME280;9420;50.876;7.012;2023-02-08T10:11:39;103352.41;;;9.01;50.09
19553;BME280;9420;50.876;7.012;2023-02-08T10:14:29;103351.81;;;9.15;49.42
19553;BME280;9420;50.876;7.012;2023-02-08T10:17:21;103349.97;;;9.11;48.97
19553;BME280;9420;50.876;7.012;2023-02-08T10:20:03;103351.50;;;9.46;48.41
19553;BME280;9420;50.876;7.012;2023-02-08T10:22:44;103351.41;;;9.96;48.23
19553;BME280;9420;50.876;7.012;2023-02-08T10:25:33;103347.59;;;9.76;47.18
19553;BME280;9420;50.876;7.012;2023-02-08T10:28:29;103335.59;;;10.59;45.29
19553;BME280;9420;50.876;7.012;2023-02-08T10:31:09;103343.88;;;10.93;43.71
19553;BME280;9420;50.876;7.012;2023-02-08T10:33:54;103334.91;;;10.75;44.77
19553;BME280;9420;50.876;7.012;2023-02-08T10:36:28;103331.78;;;11.10;43.20
19553;BME280;9420;50.876;7.012;2023-02-08T10:38:59;103328.28;;;11.11;44.41
19553;BME280;9420;50.876;7.012;2023-02-08T10:41:33;103336.59;;;11.54;42.85
19553;BME280;9420;50.876;7.012;2023-02-08T10:44:15;103330.31;;;11.43;42.21
19553;BME280;9420;50.876;7.012;2023-02-08T10:46:55;103325.38;;;11.79;41.67
19553;BME280;9420;50.876;7.012;2023-02-08T10:49:34;103332.03;;;11.38;41.69
19553;BME280;9420;50.876;7.012;2023-02-08T10:52:06;103325.00;;;10.54;42.92
19553;BME280;9420;50.876;7.012;2023-02-08T10:54:34;103319.09;;;10.73;42.81
19553;BME280;9420;50.876;7.012;2023-02-08T10:57:04;103315.38;;;11.43;43.01
19553;BME280;9420;50.876;7.012;2023-02-08T10:59:46;103317.84;;;11.24;42.77
19553;BME280;9420;50.876;7.012;2023-02-08T11:02:21;103307.28;;;11.24;41.80
19553;BME280;9420;50.876;7.012;2023-02-08T11:04:59;103307.09;;;11.04;41.89
19553;BME280;9420;50.876;7.012;2023-02-08T11:07:26;103302.97;;;11.32;41.34
19553;BME280;9420;50.876;7.012;2023-02-08T11:10:19;103299.50;;;11.37;40.71
19553;BME280;9420;50.876;7.012;2023-02-08T11:12:56;103302.53;;;11.90;39.29
19553;BME280;9420;50.876;7.012;2023-02-08T11:15:36;103303.66;;;12.34;39.52
19553;BME280;9420;50.876;7.012;2023-02-08T11:18:06;103304.53;;;12.27;39.46
19553;BME280;9420;50.876;7.012;2023-02-08T11:20:41;103308.19;;;12.68;39.54
19553;BME280;9420;50.876;7.012;2023-02-08T11:23:22;103305.50;;;12.59;37.67
19553;BME280;9420;50.876;7.012;2023-02-08T11:25:53;103298.59;;;13.11;36.75
19553;BME280;9420;50.876;7.012;2023-02-08T11:28:26;103285.34;;;13.58;37.21
19553;BME280;9420;50.876;7.012;2023-02-08T11:31:02;103294.19;;;13.51;36.68
19553;BME280;9420;50.876;7.012;2023-02-08T11:33:34;103299.47;;;13.51;36.58
19553;BME280;9420;50.876;7.012;2023-02-08T11:36:07;103283.50;;;13.93;36.13
19553;BME280;9420;50.876;7.012;2023-02-08T11:38:41;103274.59;;;14.30;35.25
19553;BME280;9420;50.876;7.012;2023-02-08T11:41:18;103272.91;;;13.93;34.42
19553;BME280;9420;50.876;7.012;2023-02-08T11:44:00;103270.16;;;14.20;34.96
19553;BME280;9420;50.876;7.012;2023-02-08T11:46:31;103263.69;;;14.79;34.64
19553;BME280;9420;50.876;7.012;2023-02-08T11:49:00;103248.69;;;14.78;33.98
19553;BME280;9420;50.876;7.012;2023-02-08T11:51:32;103253.13;;;14.73;33.62
19553;BME280;9420;50.876;7.012;2023-02-08T11:54:03;103236.84;;;15.21;35.25
19553;BME280;9420;50.876;7.012;2023-02-08T11:56:33;103237.41;;;15.59;33.39
19553;BME280;9420;50.876;7.012;2023-02-08T11:59:08;103240.88;;;16.36;31.57
19553;BME280;9420;50.876;7.012;2023-02-08T12:01:43;103225.66;;;17.06;30.36
19553;BME280;9420;50.876;7.012;2023-02-08T12:04:12;103219.09;;;18.58;30.07
19553;BME280;9420;50.876;7.012;2023-02-08T12:07:14;103217.81;;;19.77;28.12
19553;BME280;9420;50.876;7.012;2023-02-08T12:10:20;103208.31;;;21.10;26.03
19553;BME280;9420;50.876;7.012;2023-02-08T12:13:18;103195.84;;;22.07;25.14
19553;BME280;9420;50.876;7.012;2023-02-08T12:16:04;103192.38;;;22.49;23.90
19553;BME280;9420;50.876;7.012;2023-02-08T12:18:56;103186.66;;;23.61;23.51
19553;BME280;9420;50.876;7.012;2023-02-08T12:21:33;103168.53;;;25.12;21.89
19553;BME280;9420;50.876;7.012;2023-02-08T12:24:13;103173.72;;;23.90;23.05
19553;BME280;9420;50.876;7.012;2023-02-08T12:27:04;103169.63;;;24.91;21.32
19553;BME280;9420;50.876;7.012;2023-02-08T12:29:43;103171.97;;;24.63;19.84
19553;BME280;9420;50.876;7.012;2023-02-08T12:32:54;103163.38;;;23.81;20.78
19553;BME280;9420;50.876;7.012;2023-02-08T12:36:03;103157.13;;;24.55;20.69
19553;BME280;9420;50.876;7.012;2023-02-08T12:39:00;103154.44;;;24.90;20.52
19553;BME280;9420;50.876;7.012;2023-02-08T12:42:08;103143.88;;;26.49;19.50
19553;BME280;9420;50.876;7.012;2023-02-08T12:44:57;103135.31;;;27.60;18.75
19553;BME280;9420;50.876;7.012;2023-02-08T12:47:44;103124.28;;;27.35;19.40
19553;BME280;9420;50.876;7.012;2023-02-08T12:50:26;103107.47;;;28.54;18.01
19553;BME280;9420;50.876;7.012;2023-02-08T12:53:02;103123.84;;;28.25;17.70
19553;BME280;9420;50.876;7.012;2023-02-08T12:55:35;103121.84;;;26.87;17.45
19553;BME280;9420;50.876;7.012;2023-02-08T12:58:25;103117.59;;;26.97;18.97
19553;BME280;9420;50.876;7.012;2023-02-08T13:00:59;103108.13;;;27.90;17.13
19553;BME280;9420;50.876;7.012;2023-02-08T13:03:39;103104.53;;;28.30;17.83
19553;BME280;9420;50.876;7.012;2023-02-08T13:06:16;103107.88;;;27.52;17.30
19553;BME280;9420;50.876;7.012;2023-02-08T13:08:50;103104.72;;;27.86;17.18
19553;BME280;9420;50.876;7.012;2023-02-08T13:11:26;103105.66;;;27.15;17.03
19553;BME280;9420;50.876;7.012;2023-02-08T13:14:02;103108.66;;;27.10;18.46
19553;BME280;9420;50.876;7.012;2023-02-08T13:16:39;103106.25;;;27.34;17.94
19553;BME280;9420;50.876;7.012;2023-02-08T13:19:25;103086.28;;;28.73;16.98
19553;BME280;9420;50.876;7.012;2023-02-08T13:21:57;103096.69;;;28.13;16.94
19553;BME280;9420;50.876;7.012;2023-02-08T13:24:34;103086.13;;;27.94;17.96
19553;BME280;9420;50.876;7.012;2023-02-08T13:27:02;103088.00;;;28.61;16.89
19553;BME280;9420;50.876;7.012;2023-02-08T13:29:33;103086.13;;;27.94;16.52
19553;BME280;9420;50.876;7.012;2023-02-08T13:32:05;103073.00;;;28.02;17.09
19553;BME280;9420;50.876;7.012;2023-02-08T13:34:40;103068.97;;;29.13;17.01
19553;BME280;9420;50.876;7.012;2023-02-08T13:37:20;103070.91;;;28.86;16.08
19553;BME280;9420;50.876;7.012;2023-02-08T13:39:50;103054.72;;;28.97;15.29
19553;BME280;9420;50.876;7.012;2023-02-08T13:42:29;103048.66;;;28.42;16.61
19553;BME280;9420;50.876;7.012;2023-02-08T13:45:01;103052.41;;;28.66;16.62